首页
METAR-TAF:

METAR-TAF

机场 :

麦克斯韦-甘特空军基地

蒙哥马利, 阿拉巴马州, 美国

纬度: 32-23N, 经度: 086-22W, 海拔: 51米

当前天气观测

该预报发布于40分钟前的20:56 UTC
静风
温度 11°C
湿度 62%
气压 1018 hPa
能見度: 16.1公里
阴天层高于6000英尺

METAR: KMXF 262056Z AUTO 00000KT 10SM OVC060 11/04 A3005 RMK AO2 SLP179 T01120035 57021 $

时间: 15:36 (21:36 UTC)

预报

该预报发布于1小时和36分钟前的20:00 UTC
预报有效从26日的 20点(UTC)到 28日的 02点(UTC)
风速6节,风向西转西南
能见度10公里或以上
散云层高于6000英尺
多云层高于7000英尺
阴天层高于14000英尺
成为
从 27日的 01点(UTC)到 27日的 02点(UTC)
风速9节,风向西转西南
能见度10公里或以上
多云层高于2000英尺
阴天层高于4000英尺
小雨
成为
从 27日的 05点(UTC)到 27日的 06点(UTC)
风速6节,风向多变
能見度: 9000
多云层高于700英尺
阴天层高于1500英尺
小阵雨
成为
从 27日的 14点(UTC)到 27日的 15点(UTC)
风速6节,风向多变
能见度10公里或以上
阴天层高于500英尺
短暂存在
从 27日的 17点(UTC)到 27日的 18点(UTC)
多云层高于1000英尺
成为
从 27日的 20点(UTC)到 27日的 21点(UTC)
风速6节,风向南转西南
能見度: 2712
阴天层高于2500英尺

TAF: KMXF 262000Z 2620/2802 24006KT 9999 SCT060 BKN070 OVC140 621005 QNH3003INS BECMG 2701/2702 24009KT 9999 -RA BKN020 OVC040 610804 QNH3001INS BECMG 2705/2706 VRB06KT 9000 -SHRA BKN007 OVC015 610903 QNH2993INS BECMG 2714/2715 VRB06KT 9999 NSW OVC005 QNH2992INS TEMPO 2717/2718 BKN010 BECMG 2720/2721 21006KT 9999 OVC025 QNH2992INS TX12/2621Z TN08/2708Z LAST NO AMDS AFT 2700 NEXT 2712

超过4000个机场的气象观测和天气预报(METAR&TAF报告)。

可查询的气象台以黄色和红色小点在地图上表示。

将鼠标移到小点上方,可查看气象台名称。

然后点击查看天气观测和预报。

如需切换地图:点击带黑十字的绿色按钮放大地图;点击带横线的绿色按钮缩小地图;或者点击绿色箭头查看邻近地区的地图。


METAR-TAF: